sensor_id;sensor_type;location;lat;lon;timestamp;pressure;altitude;pressure_sealevel;temperature;humidity
49947;BME280;35839;48.662;13.300;2022-12-16T06:04:25;96084.28;;;-0.76;100.00
49947;BME280;35839;48.662;13.300;2022-12-16T06:07:09;96089.41;;;-0.76;100.00
49947;BME280;35839;48.662;13.300;2022-12-16T06:09:52;96095.25;;;-0.74;100.00
49947;BME280;35839;48.662;13.300;2022-12-16T06:12:53;96093.41;;;-0.61;100.00
49947;BME280;35839;48.662;13.300;2022-12-16T06:15:37;96106.03;;;-0.69;100.00
49947;BME280;35839;48.662;13.300;2022-12-16T06:18:21;96098.78;;;-0.64;100.00
49947;BME280;35839;48.662;13.300;2022-12-16T06:21:05;96103.78;;;-0.74;100.00
49947;BME280;35839;48.662;13.300;2022-12-16T06:23:49;96117.44;;;-0.73;100.00
49947;BME280;35839;48.662;13.300;2022-12-16T06:26:33;96125.16;;;-0.73;100.00
49947;BME280;35839;48.662;13.300;2022-12-16T06:29:17;96134.31;;;-0.69;100.00
49947;BME280;35839;48.662;13.300;2022-12-16T06:32:01;96135.78;;;-0.78;100.00
49947;BME280;35839;48.662;13.300;2022-12-16T06:34:45;96146.91;;;-0.66;100.00
49947;BME280;35839;48.662;13.300;2022-12-16T06:37:29;96156.72;;;-0.71;100.00
49947;BME280;35839;48.662;13.300;2022-12-16T06:40:13;96169.16;;;-0.65;100.00
49947;BME280;35839;48.662;13.300;2022-12-16T06:42:57;96177.63;;;-0.40;100.00
49947;BME280;35839;48.662;13.300;2022-12-16T06:45:41;96175.25;;;-0.55;100.00
49947;BME280;35839;48.662;13.300;2022-12-16T06:48:24;96176.34;;;-0.70;100.00
49947;BME280;35839;48.662;13.300;2022-12-16T06:51:22;96180.75;;;-0.83;100.00
49947;BME280;35839;48.662;13.300;2022-12-16T06:54:06;96170.56;;;-1.09;100.00
49947;BME280;35839;48.662;13.300;2022-12-16T06:56:50;96168.66;;;-0.94;100.00
49947;BME280;35839;48.662;13.300;2022-12-16T06:59:33;96178.13;;;-1.08;100.00
49947;BME280;35839;48.662;13.300;2022-12-16T07:02:18;96186.72;;;-0.96;100.00
49947;BME280;35839;48.662;13.300;2022-12-16T07:05:02;96187.78;;;-0.98;100.00
49947;BME280;35839;48.662;13.300;2022-12-16T07:07:47;96179.34;;;-1.00;100.00
49947;BME280;35839;48.662;13.300;2022-12-16T07:10:31;96189.25;;;-1.07;100.00
49947;BME280;35839;48.662;13.300;2022-12-16T07:13:15;96186.84;;;-0.97;100.00
49947;BME280;35839;48.662;13.300;2022-12-16T07:15:59;96191.69;;;-1.06;100.00
49947;BME280;35839;48.662;13.300;2022-12-16T07:18:43;96201.59;;;-1.12;100.00
49947;BME280;35839;48.662;13.300;2022-12-16T07:21:27;96206.06;;;-1.03;100.00
49947;BME280;35839;48.662;13.300;2022-12-16T07:24:11;96212.44;;;-0.96;100.00
49947;BME280;35839;48.662;13.300;2022-12-16T07:26:55;96226.72;;;-0.92;100.00
49947;BME280;35839;48.662;13.300;2022-12-16T07:29:39;96230.03;;;-1.02;100.00
49947;BME280;35839;48.662;13.300;2022-12-16T07:32:23;96242.03;;;-1.03;100.00
49947;BME280;35839;48.662;13.300;2022-12-16T07:35:07;96248.44;;;-1.09;100.00
49947;BME280;35839;48.662;13.300;2022-12-16T07:37:51;96254.75;;;-1.25;100.00
49947;BME280;35839;48.662;13.300;2022-12-16T07:40:35;96251.97;;;-1.22;100.00
49947;BME280;35839;48.662;13.300;2022-12-16T07:43:19;96259.97;;;-1.14;100.00
49947;BME280;35839;48.662;13.300;2022-12-16T07:46:03;96272.09;;;-1.16;100.00
49947;BME280;35839;48.662;13.300;2022-12-16T07:48:47;96271.44;;;-0.94;100.00
49947;BME280;35839;48.662;13.300;2022-12-16T07:51:31;96274.09;;;-0.83;100.00
49947;BME280;35839;48.662;13.300;2022-12-16T07:54:15;96276.75;;;-0.85;100.00
49947;BME280;35839;48.662;13.300;2022-12-16T07:56:59;96286.63;;;-0.91;100.00
49947;BME280;35839;48.662;13.300;2022-12-16T07:59:43;96287.81;;;-0.71;100.00
49947;BME280;35839;48.662;13.300;2022-12-16T08:02:27;96300.41;;;-0.92;100.00
49947;BME280;35839;48.662;13.300;2022-12-16T08:05:11;96305.88;;;-0.97;100.00
49947;BME280;35839;48.662;13.300;2022-12-16T08:07:55;96309.06;;;-1.06;100.00
49947;BME280;35839;48.662;13.300;2022-12-16T08:10:38;96307.72;;;-0.99;100.00
49947;BME280;35839;48.662;13.300;2022-12-16T08:13:22;96310.69;;;-0.92;100.00
49947;BME280;35839;48.662;13.300;2022-12-16T08:16:06;96324.09;;;-1.00;100.00
49947;BME280;35839;48.662;13.300;2022-12-16T08:18:50;96329.41;;;-0.90;100.00
49947;BME280;35839;48.662;13.300;2022-12-16T08:21:34;96338.06;;;-1.04;100.00
49947;BME280;35839;48.662;13.300;2022-12-16T08:24:18;96345.53;;;-1.01;100.00
49947;BME280;35839;48.662;13.300;2022-12-16T08:27:02;96345.53;;;-1.01;100.00
49947;BME280;35839;48.662;13.300;2022-12-16T08:29:46;96344.22;;;-1.19;100.00
49947;BME280;35839;48.662;13.300;2022-12-16T08:32:30;96351.53;;;-1.13;100.00
49947;BME280;35839;48.662;13.300;2022-12-16T08:35:14;96351.81;;;-1.05;100.00
49947;BME280;35839;48.662;13.300;2022-12-16T08:37:59;96350.19;;;-1.06;100.00
49947;BME280;35839;48.662;13.300;2022-12-16T08:40:43;96363.53;;;-0.88;100.00
49947;BME280;35839;48.662;13.300;2022-12-16T08:43:32;96367.53;;;-0.71;100.00
49947;BME280;35839;48.662;13.300;2022-12-16T08:46:17;96369.78;;;-1.05;100.00
49947;BME280;35839;48.662;13.300;2022-12-16T08:49:01;96379.25;;;-0.93;100.00
49947;BME280;35839;48.662;13.300;2022-12-16T08:51:45;96380.78;;;-0.65;100.00
49947;BME280;35839;48.662;13.300;2022-12-16T08:54:29;96387.31;;;-0.48;100.00
49947;BME280;35839;48.662;13.300;2022-12-16T08:57:12;96384.25;;;-0.53;100.00
49947;BME280;35839;48.662;13.300;2022-12-16T08:59:56;96392.56;;;-0.49;100.00
49947;BME280;35839;48.662;13.300;2022-12-16T09:02:53;96399.63;;;-0.40;100.00
49947;BME280;35839;48.662;13.300;2022-12-16T09:05:37;96404.38;;;-0.34;100.00
49947;BME280;35839;48.662;13.300;2022-12-16T09:08:21;96403.50;;;-0.22;100.00
49947;BME280;35839;48.662;13.300;2022-12-16T09:11:05;96416.03;;;-0.54;100.00
49947;BME280;35839;48.662;13.300;2022-12-16T09:13:49;96416.09;;;-0.43;100.00
49947;BME280;35839;48.662;13.300;2022-12-16T09:16:33;96423.34;;;-0.60;100.00
49947;BME280;35839;48.662;13.300;2022-12-16T09:19:17;96421.16;;;-0.54;100.00
49947;BME280;35839;48.662;13.300;2022-12-16T09:22:01;96418.81;;;-0.57;100.00
49947;BME280;35839;48.662;13.300;2022-12-16T09:24:45;96421.41;;;-0.70;100.00
49947;BME280;35839;48.662;13.300;2022-12-16T09:27:29;96427.25;;;-0.55;100.00
49947;BME280;35839;48.662;13.300;2022-12-16T09:30:13;96430.91;;;-0.33;100.00
49947;BME280;35839;48.662;13.300;2022-12-16T09:32:57;96438.06;;;-0.13;100.00
49947;BME280;35839;48.662;13.300;2022-12-16T09:35:41;96438.75;;;-0.35;100.00
49947;BME280;35839;48.662;13.300;2022-12-16T09:38:25;96448.03;;;-0.58;100.00
49947;BME280;35839;48.662;13.300;2022-12-16T09:41:34;96433.50;;;-0.46;100.00
49947;BME280;35839;48.662;13.300;2022-12-16T09:44:42;96449.97;;;-0.61;100.00
49947;BME280;35839;48.662;13.300;2022-12-16T09:47:54;96457.06;;;-0.78;100.00
49947;BME280;35839;48.662;13.300;2022-12-16T09:50:41;96461.28;;;-0.64;100.00
49947;BME280;35839;48.662;13.300;2022-12-16T09:53:27;96464.69;;;-0.76;100.00
49947;BME280;35839;48.662;13.300;2022-12-16T09:56:21;96471.06;;;-0.69;100.00
49947;BME280;35839;48.662;13.300;2022-12-16T09:59:12;96463.25;;;-0.55;100.00
49947;BME280;35839;48.662;13.300;2022-12-16T10:01:56;96470.97;;;-0.80;100.00
49947;BME280;35839;48.662;13.300;2022-12-16T10:04:41;96472.50;;;-0.78;100.00
49947;BME280;35839;48.662;13.300;2022-12-16T10:07:29;96481.56;;;-0.72;100.00
49947;BME280;35839;48.662;13.300;2022-12-16T10:13:32;96471.88;;;-0.69;100.00
49947;BME280;35839;48.662;13.300;2022-12-16T10:16:40;96477.03;;;-0.56;100.00
49947;BME280;35839;48.662;13.300;2022-12-16T10:19:46;96478.06;;;-0.46;100.00
49947;BME280;35839;48.662;13.300;2022-12-16T10:28:51;96484.44;;;-0.38;100.00
49947;BME280;35839;48.662;13.300;2022-12-16T10:31:37;96477.72;;;-0.28;100.00
49947;BME280;35839;48.662;13.300;2022-12-16T10:34:27;96480.47;;;-0.06;100.00
49947;BME280;35839;48.662;13.300;2022-12-16T10:37:19;96492.34;;;0.21;100.00
49947;BME280;35839;48.662;13.300;2022-12-16T10:40:05;96489.16;;;0.05;100.00
49947;BME280;35839;48.662;13.300;2022-12-16T10:43:00;96490.97;;;-0.22;100.00
49947;BME280;35839;48.662;13.300;2022-12-16T10:45:47;96491.91;;;-0.35;100.00
49947;BME280;35839;48.662;13.300;2022-12-16T10:48:32;96502.31;;;-0.50;100.00
49947;BME280;35839;48.662;13.300;2022-12-16T10:51:20;96502.84;;;-0.45;100.00
49947;BME280;35839;48.662;13.300;2022-12-16T10:54:40;96492.88;;;-0.62;100.00
49947;BME280;35839;48.662;13.300;2022-12-16T10:57:50;96490.09;;;-0.59;100.00
49947;BME280;35839;48.662;13.300;2022-12-16T11:00:49;96497.06;;;-0.61;100.00
49947;BME280;35839;48.662;13.300;2022-12-16T11:03:35;96505.00;;;-0.64;100.00
49947;BME280;35839;48.662;13.300;2022-12-16T11:06:24;96500.38;;;-0.59;100.00
49947;BME280;35839;48.662;13.300;2022-12-16T11:09:26;96501.59;;;-0.26;100.00
49947;BME280;35839;48.662;13.300;2022-12-16T11:12:29;96503.97;;;-0.23;100.00
49947;BME280;35839;48.662;13.300;2022-12-16T11:15:28;96511.38;;;-0.31;100.00
49947;BME280;35839;48.662;13.300;2022-12-16T11:21:19;96519.47;;;-0.12;100.00
49947;BME280;35839;48.662;13.300;2022-12-16T11:26:57;96515.50;;;-0.41;100.00
49947;BME280;35839;48.662;13.300;2022-12-16T11:29:53;96520.75;;;-0.30;100.00
49947;BME280;35839;48.662;13.300;2022-12-16T11:32:39;96526.59;;;-0.15;100.00
49947;BME280;35839;48.662;13.300;2022-12-16T11:35:26;96516.94;;;-0.25;100.00
49947;BME280;35839;48.662;13.300;2022-12-16T11:38:23;96521.34;;;-0.14;100.00
49947;BME280;35839;48.662;13.300;2022-12-16T11:41:17;96524.53;;;-0.36;100.00
49947;BME280;35839;48.662;13.300;2022-12-16T11:44:08;96526.50;;;-0.52;100.00
49947;BME280;35839;48.662;13.300;2022-12-16T11:46:54;96528.88;;;-0.62;100.00
49947;BME280;35839;48.662;13.300;2022-12-16T11:49:39;96528.78;;;-0.35;100.00
49947;BME280;35839;48.662;13.300;2022-12-16T11:52:23;96531.72;;;-0.28;100.00
49947;BME280;35839;48.662;13.300;2022-12-16T11:55:22;96529.19;;;-0.41;100.00
49947;BME280;35839;48.662;13.300;2022-12-16T11:58:36;96531.97;;;-0.44;100.00
49947;BME280;35839;48.662;13.300;2022-12-16T12:01:32;96531.94;;;-0.31;100.00
49947;BME280;35839;48.662;13.300;2022-12-16T12:04:17;96520.28;;;0.02;100.00
49947;BME280;35839;48.662;13.300;2022-12-16T12:10:09;96524.13;;;-0.43;100.00
49947;BME280;35839;48.662;13.300;2022-12-16T12:16:09;96531.13;;;-0.57;100.00
49947;BME280;35839;48.662;13.300;2022-12-16T12:21:52;96542.34;;;-0.71;100.00
49947;BME280;35839;48.662;13.300;2022-12-16T12:24:52;96539.97;;;-0.74;100.00
49947;BME280;35839;48.662;13.300;2022-12-16T12:30:41;96544.91;;;-0.46;100.00
49947;BME280;35839;48.662;13.300;2022-12-16T12:33:37;96547.47;;;-0.71;100.00
49947;BME280;35839;48.662;13.300;2022-12-16T12:36:33;96553.84;;;-0.64;100.00
49947;BME280;35839;48.662;13.300;2022-12-16T12:39:34;96553.69;;;-1.01;100.00
49947;BME280;35839;48.662;13.300;2022-12-16T12:42:27;96554.84;;;-0.92;100.00
49947;BME280;35839;48.662;13.300;2022-12-16T12:45:41;96551.59;;;-0.81;100.00
49947;BME280;35839;48.662;13.300;2022-12-16T12:48:40;96566.66;;;-0.90;100.00
49947;BME280;35839;48.662;13.300;2022-12-16T12:54:40;96557.41;;;-0.79;100.00
49947;BME280;35839;48.662;13.300;2022-12-16T12:57:28;96568.72;;;-0.82;100.00
49947;BME280;35839;48.662;13.300;2022-12-16T13:00:19;96576.34;;;-0.80;100.00
49947;BME280;35839;48.662;13.300;2022-12-16T13:06:05;96574.63;;;-0.67;100.00
49947;BME280;35839;48.662;13.300;2022-12-16T13:11:34;96565.88;;;-0.65;100.00
49947;BME280;35839;48.662;13.300;2022-12-16T13:17:15;96588.03;;;-1.02;100.00
49947;BME280;35839;48.662;13.300;2022-12-16T13:20:00;96598.28;;;-1.02;100.00
49947;BME280;35839;48.662;13.300;2022-12-16T13:22:45;96593.59;;;-0.95;100.00
49947;BME280;35839;48.662;13.300;2022-12-16T13:28:34;96598.31;;;-0.89;100.00
49947;BME280;35839;48.662;13.300;2022-12-16T13:31:19;96590.31;;;-0.85;100.00
49947;BME280;35839;48.662;13.300;2022-12-16T13:34:22;96597.34;;;-0.61;100.00
49947;BME280;35839;48.662;13.300;2022-12-16T13:37:20;96604.75;;;-0.69;100.00
49947;BME280;35839;48.662;13.300;2022-12-16T13:40:16;96610.66;;;-0.94;100.00
49947;BME280;35839;48.662;13.300;2022-12-16T13:43:01;96615.78;;;-0.94;100.00
49947;BME280;35839;48.662;13.300;2022-12-16T13:48:42;96632.56;;;-1.16;100.00
49947;BME280;35839;48.662;13.300;2022-12-16T13:54:21;96633.63;;;-1.33;100.00
49947;BME280;35839;48.662;13.300;2022-12-16T13:57:10;96646.47;;;-1.33;100.00
49947;BME280;35839;48.662;13.300;2022-12-16T13:59:58;96641.69;;;-1.39;100.00
49947;BME280;35839;48.662;13.300;2022-12-16T14:02:43;96645.00;;;-1.37;100.00
49947;BME280;35839;48.662;13.300;2022-12-16T14:05:33;96650.47;;;-1.29;100.00
49947;BME280;35839;48.662;13.300;2022-12-16T14:08:20;96651.97;;;-1.39;100.00
49947;BME280;35839;48.662;13.300;2022-12-16T14:11:29;96658.03;;;-1.54;100.00
49947;BME280;35839;48.662;13.300;2022-12-16T14:14:30;96654.91;;;-1.59;100.00
49947;BME280;35839;48.662;13.300;2022-12-16T14:17:41;96662.81;;;-1.62;100.00
49947;BME280;35839;48.662;13.300;2022-12-16T14:20:33;96668.50;;;-1.57;100.00
49947;BME280;35839;48.662;13.300;2022-12-16T14:26:22;96677.28;;;-1.47;100.00
49947;BME280;35839;48.662;13.300;2022-12-16T14:29:17;96678.38;;;-1.80;100.00
49947;BME280;35839;48.662;13.300;2022-12-16T14:32:25;96684.63;;;-1.70;100.00
49947;BME280;35839;48.662;13.300;2022-12-16T14:35:19;96694.72;;;-1.66;100.00
49947;BME280;35839;48.662;13.300;2022-12-16T14:38:30;96691.88;;;-1.62;100.00
49947;BME280;35839;48.662;13.300;2022-12-16T14:41:17;96688.56;;;-1.64;100.00
49947;BME280;35839;48.662;13.300;2022-12-16T14:44:04;96695.19;;;-1.74;100.00
49947;BME280;35839;48.662;13.300;2022-12-16T14:46:51;96697.81;;;-1.76;100.00
49947;BME280;35839;48.662;13.300;2022-12-16T14:49:47;96706.00;;;-1.69;100.00
49947;BME280;35839;48.662;13.300;2022-12-16T14:52:31;96716.72;;;-1.62;100.00
49947;BME280;35839;48.662;13.300;2022-12-16T14:55:19;96720.72;;;-1.73;100.00
49947;BME280;35839;48.662;13.300;2022-12-16T14:58:08;96728.81;;;-1.64;100.00
49947;BME280;35839;48.662;13.300;2022-12-16T15:00:53;96733.97;;;-1.50;100.00
49947;BME280;35839;48.662;13.300;2022-12-16T15:03:39;96736.13;;;-1.73;100.00
49947;BME280;35839;48.662;13.300;2022-12-16T15:06:26;96748.69;;;-1.82;100.00
49947;BME280;35839;48.662;13.300;2022-12-16T15:09:21;96755.34;;;-1.94;100.00
49947;BME280;35839;48.662;13.300;2022-12-16T15:12:07;96742.91;;;-2.00;100.00
49947;BME280;35839;48.662;13.300;2022-12-16T15:14:52;96750.34;;;-1.96;100.00
49947;BME280;35839;48.662;13.300;2022-12-16T15:17:48;96750.97;;;-1.92;100.00
49947;BME280;35839;48.662;13.300;2022-12-16T15:20:35;96749.72;;;-1.71;100.00
49947;BME280;35839;48.662;13.300;2022-12-16T15:23:25;96757.66;;;-1.89;100.00
49947;BME280;35839;48.662;13.300;2022-12-16T15:26:17;96761.16;;;-1.91;100.00
49947;BME280;35839;48.662;13.300;2022-12-16T15:29:01;96764.25;;;-2.00;100.00
49947;BME280;35839;48.662;13.300;2022-12-16T15:31:45;96764.50;;;-2.04;100.00
49947;BME280;35839;48.662;13.300;2022-12-16T15:34:34;96773.78;;;-1.87;100.00
49947;BME280;35839;48.662;13.300;2022-12-16T15:37:24;96778.66;;;-1.83;100.00
49947;BME280;35839;48.662;13.300;2022-12-16T15:40:25;96789.53;;;-1.94;100.00
49947;BME280;35839;48.662;13.300;2022-12-16T15:43:20;96792.16;;;-1.79;100.00
49947;BME280;35839;48.662;13.300;2022-12-16T15:46:15;96787.06;;;-1.95;100.00
49947;BME280;35839;48.662;13.300;2022-12-16T15:48:59;96790.19;;;-1.90;100.00
49947;BME280;35839;48.662;13.300;2022-12-16T15:51:47;96799.97;;;-1.97;100.00
49947;BME280;35839;48.662;13.300;2022-12-16T15:54:31;96802.63;;;-1.98;100.00
49947;BME280;35839;48.662;13.300;2022-12-16T15:57:33;96818.56;;;-2.07;100.00
49947;BME280;35839;48.662;13.300;2022-12-16T16:00:26;96817.06;;;-2.12;100.00
49947;BME280;35839;48.662;13.300;2022-12-16T16:06:01;96824.66;;;-2.10;100.00
49947;BME280;35839;48.662;13.300;2022-12-16T16:08:49;96821.69;;;-2.02;100.00
49947;BME280;35839;48.662;13.300;2022-12-16T16:11:33;96824.81;;;-1.97;100.00
49947;BME280;35839;48.662;13.300;2022-12-16T16:14:18;96837.94;;;-2.18;100.00
49947;BME280;35839;48.662;13.300;2022-12-16T16:17:02;96827.16;;;-2.08;100.00
49947;BME280;35839;48.662;13.300;2022-12-16T16:19:46;96835.41;;;-2.03;100.00
49947;BME280;35839;48.662;13.300;2022-12-16T16:22:30;96838.38;;;-1.95;100.00
49947;BME280;35839;48.662;13.300;2022-12-16T16:25:14;96831.78;;;-1.99;100.00
49947;BME280;35839;48.662;13.300;2022-12-16T16:27:58;96844.53;;;-2.14;100.00
49947;BME280;35839;48.662;13.300;2022-12-16T16:30:41;96834.72;;;-2.21;100.00
49947;BME280;35839;48.662;13.300;2022-12-16T16:33:25;96842.72;;;-2.12;100.00
49947;BME280;35839;48.662;13.300;2022-12-16T16:36:14;96837.09;;;-2.02;100.00
49947;BME280;35839;48.662;13.300;2022-12-16T16:38:59;96848.81;;;-1.98;100.00
49947;BME280;35839;48.662;13.300;2022-12-16T16:41:42;96838.91;;;-2.04;100.00
49947;BME280;35839;48.662;13.300;2022-12-16T16:44:26;96845.19;;;-2.10;100.00
49947;BME280;35839;48.662;13.300;2022-12-16T16:47:15;96850.31;;;-2.10;100.00
49947;BME280;35839;48.662;13.300;2022-12-16T16:49:59;96852.66;;;-2.21;100.00
49947;BME280;35839;48.662;13.300;2022-12-16T16:52:43;96853.88;;;-2.13;100.00
49947;BME280;35839;48.662;13.300;2022-12-16T16:55:27;96853.97;;;-2.14;100.00
49947;BME280;35839;48.662;13.300;2022-12-16T16:58:20;96858.44;;;-2.18;100.00
49947;BME280;35839;48.662;13.300;2022-12-16T17:01:13;96858.31;;;-2.30;100.00
49947;BME280;35839;48.662;13.300;2022-12-16T17:03:58;96871.69;;;-2.25;100.00
49947;BME280;35839;48.662;13.300;2022-12-16T17:06:42;96880.97;;;-2.23;100.00
49947;BME280;35839;48.662;13.300;2022-12-16T17:09:26;96884.09;;;-2.18;100.00
49947;BME280;35839;48.662;13.300;2022-12-16T17:12:22;96888.31;;;-2.33;100.00
49947;BME280;35839;48.662;13.300;2022-12-16T17:15:16;96882.09;;;-2.13;100.00
49947;BME280;35839;48.662;13.300;2022-12-16T17:18:03;96886.41;;;-2.13;100.00
49947;BME280;35839;48.662;13.300;2022-12-16T17:20:47;96898.91;;;-2.23;100.00
49947;BME280;35839;48.662;13.300;2022-12-16T17:23:31;96904.22;;;-2.26;100.00
49947;BME280;35839;48.662;13.300;2022-12-16T17:26:15;96910.50;;;-2.16;100.00
49947;BME280;35839;48.662;13.300;2022-12-16T17:28:59;96908.94;;;-2.18;100.00
49947;BME280;35839;48.662;13.300;2022-12-16T17:31:43;96910.06;;;-2.24;100.00
49947;BME280;35839;48.662;13.300;2022-12-16T17:34:27;96919.44;;;-2.23;100.00
49947;BME280;35839;48.662;13.300;2022-12-16T17:37:11;96924.81;;;-2.27;100.00
49947;BME280;35839;48.662;13.300;2022-12-16T17:39:55;96924.81;;;-2.27;100.00
49947;BME280;35839;48.662;13.300;2022-12-16T17:42:39;96925.97;;;-2.33;100.00
49947;BME280;35839;48.662;13.300;2022-12-16T17:45:33;96928.63;;;-2.19;100.00
49947;BME280;35839;48.662;13.300;2022-12-16T17:48:17;96943.53;;;-2.09;100.00
49947;BME280;35839;48.662;13.300;2022-12-16T17:51:02;96934.81;;;-2.23;100.00
49947;BME280;35839;48.662;13.300;2022-12-16T17:53:46;96945.50;;;-2.30;100.00
49947;BME280;35839;48.662;13.300;2022-12-16T17:56:30;96935.56;;;-2.37;100.00
49947;BME280;35839;48.662;13.300;2022-12-16T17:59:14;96935.56;;;-2.21;100.00
49947;BME280;35839;48.662;13.300;2022-12-16T18:01:58;96944.09;;;-2.20;100.00
49947;BME280;35839;48.662;13.300;2022-12-16T18:04:41;96949.28;;;-2.22;100.00
49947;BME280;35839;48.662;13.300;2022-12-16T18:07:26;96952.59;;;-2.20;100.00
49947;BME280;35839;48.662;13.300;2022-12-16T18:10:09;96956.91;;;-2.04;100.00
49947;BME280;35839;48.662;13.300;2022-12-16T18:12:54;96957.81;;;-2.05;100.00
49947;BME280;35839;48.662;13.300;2022-12-16T18:15:38;96959.31;;;-2.17;100.00
49947;BME280;35839;48.662;13.300;2022-12-16T18:18:22;96964.34;;;-2.16;100.00
49947;BME280;35839;48.662;13.300;2022-12-16T18:21:10;96968.09;;;-2.21;100.00
49947;BME280;35839;48.662;13.300;2022-12-16T18:23:55;96973.28;;;-2.23;100.00
49947;BME280;35839;48.662;13.300;2022-12-16T18:26:38;96974.28;;;-2.25;100.00
49947;BME280;35839;48.662;13.300;2022-12-16T18:29:22;96976.44;;;-2.18;100.00
49947;BME280;35839;48.662;13.300;2022-12-16T18:32:06;96975.63;;;-2.18;100.00
49947;BME280;35839;48.662;13.300;2022-12-16T18:34:50;96984.88;;;-2.16;100.00
49947;BME280;35839;48.662;13.300;2022-12-16T18:37:34;96988.19;;;-2.14;100.00
49947;BME280;35839;48.662;13.300;2022-12-16T18:40:18;96985.81;;;-2.17;100.00
49947;BME280;35839;48.662;13.300;2022-12-16T18:43:02;96986.38;;;-2.12;100.00
49947;BME280;35839;48.662;13.300;2022-12-16T18:45:55;96988.19;;;-2.14;100.00
49947;BME280;35839;48.662;13.300;2022-12-16T18:48:39;96989.84;;;-1.97;100.00
49947;BME280;35839;48.662;13.300;2022-12-16T18:51:23;96996.72;;;-1.97;100.00
49947;BME280;35839;48.662;13.300;2022-12-16T18:54:07;97002.19;;;-2.03;100.00
49947;BME280;35839;48.662;13.300;2022-12-16T18:56:51;97001.28;;;-2.02;100.00
49947;BME280;35839;48.662;13.300;2022-12-16T18:59:35;97029.06;;;-2.10;100.00
49947;BME280;35839;48.662;13.300;2022-12-16T19:02:19;97015.84;;;-2.19;100.00
49947;BME280;35839;48.662;13.300;2022-12-16T19:05:03;97028.00;;;-2.06;100.00
49947;BME280;35839;48.662;13.300;2022-12-16T19:07:47;97023.97;;;-1.95;100.00
49947;BME280;35839;48.662;13.300;2022-12-16T19:10:31;97038.69;;;-2.14;100.00
49947;BME280;35839;48.662;13.300;2022-12-16T19:13:15;97031.97;;;-2.17;100.00
49947;BME280;35839;48.662;13.300;2022-12-16T19:15:59;97031.22;;;-2.19;100.00
49947;BME280;35839;48.662;13.300;2022-12-16T19:18:43;97029.28;;;-2.31;100.00
49947;BME280;35839;48.662;13.300;2022-12-16T19:21:27;97039.81;;;-2.20;100.00
49947;BME280;35839;48.662;13.300;2022-12-16T19:24:11;97037.53;;;-2.42;100.00
49947;BME280;35839;48.662;13.300;2022-12-16T19:26:55;97051.56;;;-2.16;100.00
49947;BME280;35839;48.662;13.300;2022-12-16T19:29:39;97050.75;;;-2.16;100.00
49947;BME280;35839;48.662;13.300;2022-12-16T19:32:23;97068.00;;;-2.02;100.00
49947;BME280;35839;48.662;13.300;2022-12-16T19:35:07;97075.69;;;-2.02;100.00
49947;BME280;35839;48.662;13.300;2022-12-16T19:37:51;97078.09;;;-1.99;100.00
49947;BME280;35839;48.662;13.300;2022-12-16T19:40:35;97079.72;;;-1.98;100.00
49947;BME280;35839;48.662;13.300;2022-12-16T19:43:19;97069.25;;;-2.27;100.00
49947;BME280;35839;48.662;13.300;2022-12-16T19:46:03;97069.34;;;-2.28;100.00
49947;BME280;35839;48.662;13.300;2022-12-16T19:48:47;97075.59;;;-2.34;100.00
49947;BME280;35839;48.662;13.300;2022-12-16T19:51:31;97072.88;;;-2.31;100.00
49947;BME280;35839;48.662;13.300;2022-12-16T19:54:15;97075.41;;;-2.14;100.00
49947;BME280;35839;48.662;13.300;2022-12-16T19:56:59;97079.97;;;-2.36;100.00
49947;BME280;35839;48.662;13.300;2022-12-16T19:59:43;97076.97;;;-2.44;100.00
49947;BME280;35839;48.662;13.300;2022-12-16T20:02:27;97080.44;;;-2.28;100.00
49947;BME280;35839;48.662;13.300;2022-12-16T20:05:10;97086.31;;;-2.43;100.00
49947;BME280;35839;48.662;13.300;2022-12-16T20:07:54;97094.00;;;-2.43;100.00
49947;BME280;35839;48.662;13.300;2022-12-16T20:10:38;97101.00;;;-2.29;100.00
49947;BME280;35839;48.662;13.300;2022-12-16T20:13:22;97105.84;;;-2.23;100.00
49947;BME280;35839;48.662;13.300;2022-12-16T20:16:09;97107.28;;;-2.35;100.00
49947;BME280;35839;48.662;13.300;2022-12-16T20:18:54;97114.44;;;-2.24;100.00
49947;BME280;35839;48.662;13.300;2022-12-16T20:21:38;97115.28;;;-2.41;100.00
49947;BME280;35839;48.662;13.300;2022-12-16T20:24:23;97120.94;;;-2.35;100.00
49947;BME280;35839;48.662;13.300;2022-12-16T20:27:07;97126.81;;;-2.33;100.00
49947;BME280;35839;48.662;13.300;2022-12-16T20:29:51;97140.00;;;-2.40;100.00
49947;BME280;35839;48.662;13.300;2022-12-16T20:32:35;97140.75;;;-2.38;100.00
49947;BME280;35839;48.662;13.300;2022-12-16T20:35:19;97153.44;;;-2.35;100.00
49947;BME280;35839;48.662;13.300;2022-12-16T20:38:03;97152.91;;;-2.24;100.00
49947;BME280;35839;48.662;13.300;2022-12-16T20:40:54;97156.59;;;-2.13;100.00
49947;BME280;35839;48.662;13.300;2022-12-16T20:43:38;97153.59;;;-2.21;100.00
49947;BME280;35839;48.662;13.300;2022-12-16T20:46:22;97162.94;;;-2.55;100.00
49947;BME280;35839;48.662;13.300;2022-12-16T20:49:06;97164.81;;;-2.41;100.00
49947;BME280;35839;48.662;13.300;2022-12-16T20:51:50;97172.91;;;-2.48;100.00
49947;BME280;35839;48.662;13.300;2022-12-16T20:54:34;97176.59;;;-2.54;100.00
49947;BME280;35839;48.662;13.300;2022-12-16T20:57:18;97180.59;;;-2.48;100.00
49947;BME280;35839;48.662;13.300;2022-12-16T21:00:03;97176.06;;;-2.43;100.00
49947;BME280;35839;48.662;13.300;2022-12-16T21:02:47;97174.69;;;-2.50;100.00
49947;BME280;35839;48.662;13.300;2022-12-16T21:05:31;97185.34;;;-2.41;100.00
49947;BME280;35839;48.662;13.300;2022-12-16T21:08:15;97179.69;;;-2.47;100.00
49947;BME280;35839;48.662;13.300;2022-12-16T21:10:59;97188.00;;;-2.42;100.00
49947;BME280;35839;48.662;13.300;2022-12-16T21:13:43;97180.59;;;-2.48;100.00
49947;BME280;35839;48.662;13.300;2022-12-16T21:16:27;97189.81;;;-2.44;100.00
49947;BME280;35839;48.662;13.300;2022-12-16T21:19:11;97190.47;;;-2.41;100.00
49947;BME280;35839;48.662;13.300;2022-12-16T21:21:55;97192.50;;;-2.47;100.00